Samantha — WDJ7141 — position and weather

sailwx.info

Track history (hours):
 
Tides and Currents Weather Stations Pressure Air Temp Water Temp Dewpoint Dewpoint Depression Visibility Wind Speed Wind Dir Waves Ship Positions

Samantha

Owner: Rhodes, Dan W, San Pedro, CA. More information available from US FCC via Universal Licensing System.

Last reported at 2017-Sep-16 13:25 UTC. Time now 2017-Sep-22 20:46 UTC.
Position N 33°28' W 117°42'.

Length 16 m.

Type: Sailing vessel. MMSI: 368003740.

Date/timePositionNaut miles runAvg speedWind from/ knotsBaromVisibWave heightAir tempDewpointWater temp
2017-Sep-16 13:25N 33°28' W 117°42'0 0.0
2017-Sep-16 12:55N 33°28' W 117°42'0 0.0
2017-Sep-16 11:16N 33°28' W 117°42'0 0.0
2017-Sep-16 10:52N 33°28' W 117°42'0 0.0
2017-Sep-16 09:34N 33°28' W 117°42'0 0.0
2017-Sep-16 09:25N 33°28' W 117°42'0 0.0
2017-Sep-16 08:58N 33°28' W 117°42'0 0.0
2017-Sep-16 07:22N 33°28' W 117°42'0 0.0
2017-Sep-16 06:52N 33°28' W 117°42'0 0.0
2017-Sep-16 06:28N 33°28' W 117°42'0 0.0
2017-Sep-16 05:58N 33°28' W 117°42'0 0.0
2017-Sep-16 05:07N 33°28' W 117°42'0 0.0
2017-Sep-16 04:52N 33°28' W 117°42'0 0.0
2017-Sep-16 04:16N 33°28' W 117°42'0 0.0
2017-Sep-16 03:52N 33°28' W 117°42'0 0.0
2017-Sep-16 03:22N 33°28' W 117°42'0 0.0
2017-Sep-16 02:40N 33°28' W 117°42'0 0.0
2017-Sep-16 02:28N 33°28' W 117°42'0 0.0
2017-Sep-16 01:58N 33°28' W 117°42'0 0.0
2017-Sep-16 01:28N 33°28' W 117°42'0 0.0
2017-Sep-16 00:58N 33°28' W 117°42'0 0.0
2017-Sep-16 00:28N 33°28' W 117°42'1 1.4
2017-Sep-16 00:00N 33°27' W 117°42'3 5.3
2017-Sep-15 23:30N 33°25' W 117°40'3 5.8
2017-Sep-15 23:00N 33°24' W 117°37'2 3.2
2017-Sep-15 22:30N 33°23' W 117°35'0 0.0
2017-Sep-15 22:00N 33°23' W 117°35'0 0.0
2017-Sep-15 21:30N 33°23' W 117°35'0 0.0
2017-Sep-15 21:00N 33°23' W 117°35'0 0.0
2017-Sep-15 20:30N 33°23' W 117°35'0 0.0
2017-Sep-15 20:00N 33°23' W 117°35'0 0.0
2017-Sep-15 19:30N 33°23' W 117°35'0 0.0
2017-Sep-15 19:00N 33°23' W 117°35'0 0.0
2017-Sep-15 18:30N 33°23' W 117°35'0 0.0
2017-Sep-15 18:00N 33°23' W 117°35'0 0.0
2017-Sep-15 17:30N 33°23' W 117°35'0 0.0
2017-Sep-15 16:51N 33°23' W 117°35'0 0.0
2017-Sep-15 16:18N 33°23' W 117°35'0 0.0
2017-Sep-15 15:54N 33°23' W 117°35'0 0.0
2017-Sep-15 15:27N 33°23' W 117°35'0 0.0
2017-Sep-15 14:57N 33°23' W 117°35'0 0.0
2017-Sep-15 14:27N 33°23' W 117°35'2 4.2
2017-Sep-15 14:00N 33°24' W 117°37'5 6.9
2017-Sep-15 13:18N 33°27' W 117°41'1 0.4
2017-Sep-15 11:06N 33°28' W 117°42'0 0.0
2017-Sep-15 11:00N 33°28' W 117°42'0 0.0
2017-Sep-15 10:30N 33°28' W 117°42'0 0.0
2017-Sep-15 10:00N 33°28' W 117°42'0 0.0
2017-Sep-15 07:42N 33°28' W 117°42'0 0.0
2017-Sep-15 07:24N 33°28' W 117°42'0 0.0
2017-Sep-15 06:18N 33°28' W 117°42'0 0.1
2017-Sep-15 05:54N 33°28' W 117°42'0 0.0
2017-Sep-15 03:33N 33°28' W 117°42'0 1.3
2017-Sep-15 03:30N 33°28' W 117°42'2 3.8
2017-Sep-15 02:58N 33°26' W 117°41'3 5.5
2017-Sep-15 02:30N 33°24' W 117°39'2 4.7
2017-Sep-15 02:00N 33°23' W 117°36'1 1.7
2017-Sep-15 01:28N 33°23' W 117°35'0 0.0
2017-Sep-15 00:58N 33°23' W 117°35'0 0.0
2017-Sep-15 00:25N 33°23' W 117°35'0 0.0
2017-Sep-14 23:58N 33°23' W 117°35'0 0.0
2017-Sep-14 23:28N 33°23' W 117°35'0 0.0
2017-Sep-14 22:58N 33°23' W 117°35'0 0.0
2017-Sep-14 22:28N 33°23' W 117°35'0 0.0
2017-Sep-14 22:00N 33°23' W 117°35'0 0.0
2017-Sep-14 21:30N 33°23' W 117°35'0 0.0
2017-Sep-14 21:01N 33°23' W 117°35'0 0.0
2017-Sep-14 20:30N 33°23' W 117°35'3 4.9
2017-Sep-14 19:52N 33°24' W 117°38'2 5.6
2017-Sep-14 19:26N 33°26' W 117°41'2 4.7
2017-Sep-14 18:59N 33°28' W 117°42'0 0.3
2017-Sep-14 18:19N 33°28' W 117°42'0 0.0
2017-Sep-14 13:43N 33°28' W 117°42'0 0.0
2017-Sep-14 08:37N 33°28' W 117°42'0 0.0
2017-Sep-14 01:47N 33°28' W 117°42'1 3.1
2017-Sep-14 01:30N 33°27' W 117°41'2 4.8
2017-Sep-14 01:00N 33°25' W 117°40'3 5.1
2017-Sep-14 00:30N 33°24' W 117°38'2 4.3
2017-Sep-14 00:00N 33°23' W 117°35'0 0.0
2017-Sep-13 23:30N 33°23' W 117°35'0 0.0
2017-Sep-13 23:00N 33°23' W 117°35'0 0.0
2017-Sep-13 22:30N 33°23' W 117°35'0 0.0
2017-Sep-13 22:00N 33°23' W 117°35'0 0.0
2017-Sep-13 21:29N 33°23' W 117°35'0 0.0
2017-Sep-13 20:58N 33°23' W 117°35'0 0.0
2017-Sep-13 20:28N 33°23' W 117°35'0 0.0
2017-Sep-13 19:58N 33°23' W 117°35'0 0.0
2017-Sep-13 19:28N 33°23' W 117°35'0 0.0
2017-Sep-13 18:52N 33°23' W 117°35'0 0.0
2017-Sep-13 18:28N 33°23' W 117°35'0 0.0
2017-Sep-13 17:58N 33°23' W 117°35'0 0.0
2017-Sep-13 17:28N 33°23' W 117°35'0 0.1
2017-Sep-13 16:58N 33°23' W 117°35'0 0.0
2017-Sep-13 16:28N 33°23' W 117°35'0 0.1
2017-Sep-13 15:58N 33°23' W 117°35'0 0.1
2017-Sep-13 15:28N 33°23' W 117°35'0 0.0
2017-Sep-13 14:59N 33°23' W 117°35'0 0.2
2017-Sep-13 14:29N 33°23' W 117°35'3 6.0
2017-Sep-13 13:59N 33°24' W 117°39'3 6.5
2017-Sep-13 13:30N 33°26' W 117°41'6 0.3
2017-Sep-12 15:58N 33°23' W 117°35'0 0.1
2017-Sep-12 15:30N 33°23' W 117°35'0 0.0
2017-Sep-12 15:00N 33°23' W 117°35'0 0.1
2017-Sep-12 14:28N 33°23' W 117°35'0 0.1
2017-Sep-12 13:58N 33°23' W 117°35'0 0.1
2017-Sep-12 13:30N 33°23' W 117°35'0 0.7
2017-Sep-12 12:59N 33°23' W 117°36'2 4.3
2017-Sep-12 12:27N 33°24' W 117°38'2 5.5
2017-Sep-12 12:00N 33°24' W 117°41'13 5.1
2017-Sep-12 09:23N 33°28' W 117°56'2 4.8
2017-Sep-12 08:55N 33°29' W 117°59'51 6.5
2017-Sep-12 01:05N 33°48' W 118°56'1 7.3
2017-Sep-12 00:58N 33°48' W 118°57'3 7.1
2017-Sep-12 00:30N 33°50' W 119°00'2 4.8
2017-Sep-12 00:01N 33°51' W 119°03'3 5.5
2017-Sep-11 23:31N 33°53' W 119°05'3 5.5
2017-Sep-11 23:01N 33°55' W 119°08'3 6.1
2017-Sep-11 22:31N 33°57' W 119°10'3 5.0
2017-Sep-11 22:00N 33°60' W 119°11'3 6.3
2017-Sep-11 21:28N 34°02' W 119°14'3 6.9
2017-Sep-11 21:00N 34°05' W 119°17'4 7.3
2017-Sep-11 20:29N 34°07' W 119°20'8 6.4
2017-Sep-11 19:14N 34°13' W 119°27'2 6.2
2017-Sep-11 18:56N 34°14' W 119°28'3 5.9
2017-Sep-11 18:30N 34°16' W 119°31'4 5.8
2017-Sep-11 17:49N 34°19' W 119°34'3 6.1
2017-Sep-11 17:25N 34°21' W 119°36'5 6.1
2017-Sep-11 16:35N 34°24' W 119°40'  
2017-Sep-09 09:53N 34°25' W 119°40'0 0.0
2017-Sep-09 04:35N 34°25' W 119°40'0 0.0
2017-Sep-09 04:02N 34°25' W 119°40'0 0.0
2017-Sep-09 02:35N 34°25' W 119°40'0 0.0
2017-Sep-09 01:05N 34°25' W 119°40'0 0.0
2017-Sep-09 00:47N 34°25' W 119°40'0 0.0
2017-Sep-08 21:44N 34°25' W 119°40'0 0.0
2017-Sep-08 19:33N 34°25' W 119°40'0 2.0
2017-Sep-08 19:26N 34°25' W 119°41'1 0.4
2017-Sep-08 17:52N 34°24' W 119°41'0 0.0
2017-Sep-08 01:55N 34°24' W 119°41'0 0.0
2017-Sep-07 16:12N 34°25' W 119°41'0 0.0
2017-Sep-07 13:54N 34°25' W 119°41'2 3.8
2017-Sep-07 13:29N 34°23' W 119°42'3 5.4
2017-Sep-07 12:53N 34°22' W 119°46'2 5.9
2017-Sep-07 12:30N 34°22' W 119°48'3 5.8
2017-Sep-07 11:56N 34°22' W 119°52'3 5.8
2017-Sep-07 11:28N 34°22' W 119°56'3 5.6
2017-Sep-07 11:00N 34°23' W 119°59'3 5.5
2017-Sep-07 10:30N 34°23' W 120°02'3 5.7
2017-Sep-07 10:00N 34°24' W 120°05'3 5.1
2017-Sep-07 09:28N 34°24' W 120°09'3 5.6
2017-Sep-07 08:58N 34°24' W 120°12'3 6.3
2017-Sep-07 08:30N 34°24' W 120°15'3 5.7
2017-Sep-07 08:00N 34°24' W 120°19'3 5.3
2017-Sep-07 07:30N 34°25' W 120°22'3 5.8
2017-Sep-07 07:00N 34°25' W 120°26'3 6.3
2017-Sep-07 06:30N 34°25' W 120°29'3 6.5
2017-Sep-07 06:00N 34°27' W 120°33'4 6.6
2017-Sep-07 05:22N 34°30' W 120°36'2 6.5
2017-Sep-07 05:00N 34°31' W 120°39'8 6.3
2017-Sep-07 03:47N 34°36' W 120°46'3 5.5
2017-Sep-07 03:17N 34°38' W 120°48'2 5.5
2017-Sep-07 02:51N 34°41' W 120°48'5 5.5
2017-Sep-07 01:59N 34°45' W 120°49'3 5.6
2017-Sep-07 01:30N 34°48' W 120°49'3 6.4
2017-Sep-07 01:00N 34°51' W 120°50'3 6.4
2017-Sep-07 00:28N 34°54' W 120°50'3 6.2
2017-Sep-07 00:00N 34°57' W 120°50'8 6.4
2017-Sep-06 22:43N 35°06' W 120°51'9 5.5
2017-Sep-06 21:02N 35°14' W 120°55'1 5.2
2017-Sep-06 20:55N 35°15' W 120°55'  
Track history (hours):
 
Tides and Currents Weather Stations Pressure Air Temp Water Temp Dewpoint Dewpoint Depression Visibility Wind Speed Wind Dir Waves Ship Positions

Samantha

Owner: Rhodes, Dan W, San Pedro, CA. More information available from US FCC via Universal Licensing System.

Last reported at 2017-Sep-16 13:25 UTC. Time now 2017-Sep-22 20:46 UTC.
Position N 33°28' W 117°42'.

Length 16 m.

Type: Sailing vessel. MMSI: 368003740.

Date/timePositionNaut miles runAvg speedWind from/ knotsBaromVisibWave heightAir tempDewpointWater temp
2017-Sep-16 13:25N 33°28' W 117°42'0 0.0
2017-Sep-16 12:55N 33°28' W 117°42'0 0.0
2017-Sep-16 11:16N 33°28' W 117°42'0 0.0
2017-Sep-16 10:52N 33°28' W 117°42'0 0.0
2017-Sep-16 09:34N 33°28' W 117°42'0 0.0
2017-Sep-16 09:25N 33°28' W 117°42'0 0.0
2017-Sep-16 08:58N 33°28' W 117°42'0 0.0
2017-Sep-16 07:22N 33°28' W 117°42'0 0.0
2017-Sep-16 06:52N 33°28' W 117°42'0 0.0
2017-Sep-16 06:28N 33°28' W 117°42'0 0.0
2017-Sep-16 05:58N 33°28' W 117°42'0 0.0
2017-Sep-16 05:07N 33°28' W 117°42'0 0.0
2017-Sep-16 04:52N 33°28' W 117°42'0 0.0
2017-Sep-16 04:16N 33°28' W 117°42'0 0.0
2017-Sep-16 03:52N 33°28' W 117°42'0 0.0
2017-Sep-16 03:22N 33°28' W 117°42'0 0.0
2017-Sep-16 02:40N 33°28' W 117°42'0 0.0
2017-Sep-16 02:28N 33°28' W 117°42'0 0.0
2017-Sep-16 01:58N 33°28' W 117°42'0 0.0
2017-Sep-16 01:28N 33°28' W 117°42'0 0.0
2017-Sep-16 00:58N 33°28' W 117°42'0 0.0
2017-Sep-16 00:28N 33°28' W 117°42'1 1.4
2017-Sep-16 00:00N 33°27' W 117°42'3 5.3
2017-Sep-15 23:30N 33°25' W 117°40'3 5.8
2017-Sep-15 23:00N 33°24' W 117°37'2 3.2
2017-Sep-15 22:30N 33°23' W 117°35'0 0.0
2017-Sep-15 22:00N 33°23' W 117°35'0 0.0
2017-Sep-15 21:30N 33°23' W 117°35'0 0.0
2017-Sep-15 21:00N 33°23' W 117°35'0 0.0
2017-Sep-15 20:30N 33°23' W 117°35'0 0.0
2017-Sep-15 20:00N 33°23' W 117°35'0 0.0
2017-Sep-15 19:30N 33°23' W 117°35'0 0.0
2017-Sep-15 19:00N 33°23' W 117°35'0 0.0
2017-Sep-15 18:30N 33°23' W 117°35'0 0.0
2017-Sep-15 18:00N 33°23' W 117°35'0 0.0
2017-Sep-15 17:30N 33°23' W 117°35'0 0.0
2017-Sep-15 16:51N 33°23' W 117°35'0 0.0
2017-Sep-15 16:18N 33°23' W 117°35'0 0.0
2017-Sep-15 15:54N 33°23' W 117°35'0 0.0
2017-Sep-15 15:27N 33°23' W 117°35'0 0.0
2017-Sep-15 14:57N 33°23' W 117°35'0 0.0
2017-Sep-15 14:27N 33°23' W 117°35'2 4.2
2017-Sep-15 14:00N 33°24' W 117°37'5 6.9
2017-Sep-15 13:18N 33°27' W 117°41'1 0.4
2017-Sep-15 11:06N 33°28' W 117°42'0 0.0
2017-Sep-15 11:00N 33°28' W 117°42'0 0.0
2017-Sep-15 10:30N 33°28' W 117°42'0 0.0
2017-Sep-15 10:00N 33°28' W 117°42'0 0.0
2017-Sep-15 07:42N 33°28' W 117°42'0 0.0
2017-Sep-15 07:24N 33°28' W 117°42'0 0.0
2017-Sep-15 06:18N 33°28' W 117°42'0 0.1
2017-Sep-15 05:54N 33°28' W 117°42'0 0.0
2017-Sep-15 03:33N 33°28' W 117°42'0 1.3
2017-Sep-15 03:30N 33°28' W 117°42'2 3.8
2017-Sep-15 02:58N 33°26' W 117°41'3 5.5
2017-Sep-15 02:30N 33°24' W 117°39'2 4.7
2017-Sep-15 02:00N 33°23' W 117°36'1 1.7
2017-Sep-15 01:28N 33°23' W 117°35'0 0.0
2017-Sep-15 00:58N 33°23' W 117°35'0 0.0
2017-Sep-15 00:25N 33°23' W 117°35'0 0.0
2017-Sep-14 23:58N 33°23' W 117°35'0 0.0
2017-Sep-14 23:28N 33°23' W 117°35'0 0.0
2017-Sep-14 22:58N 33°23' W 117°35'0 0.0
2017-Sep-14 22:28N 33°23' W 117°35'0 0.0
2017-Sep-14 22:00N 33°23' W 117°35'0 0.0
2017-Sep-14 21:30N 33°23' W 117°35'0 0.0
2017-Sep-14 21:01N 33°23' W 117°35'0 0.0
2017-Sep-14 20:30N 33°23' W 117°35'3 4.9
2017-Sep-14 19:52N 33°24' W 117°38'2 5.6
2017-Sep-14 19:26N 33°26' W 117°41'2 4.7
2017-Sep-14 18:59N 33°28' W 117°42'0 0.3
2017-Sep-14 18:19N 33°28' W 117°42'0 0.0
2017-Sep-14 13:43N 33°28' W 117°42'0 0.0
2017-Sep-14 08:37N 33°28' W 117°42'0 0.0
2017-Sep-14 01:47N 33°28' W 117°42'1 3.1
2017-Sep-14 01:30N 33°27' W 117°41'2 4.8
2017-Sep-14 01:00N 33°25' W 117°40'3 5.1
2017-Sep-14 00:30N 33°24' W 117°38'2 4.3
2017-Sep-14 00:00N 33°23' W 117°35'0 0.0
2017-Sep-13 23:30N 33°23' W 117°35'0 0.0
2017-Sep-13 23:00N 33°23' W 117°35'0 0.0
2017-Sep-13 22:30N 33°23' W 117°35'0 0.0
2017-Sep-13 22:00N 33°23' W 117°35'0 0.0
2017-Sep-13 21:29N 33°23' W 117°35'0 0.0
2017-Sep-13 20:58N 33°23' W 117°35'0 0.0
2017-Sep-13 20:28N 33°23' W 117°35'0 0.0
2017-Sep-13 19:58N 33°23' W 117°35'0 0.0
2017-Sep-13 19:28N 33°23' W 117°35'0 0.0
2017-Sep-13 18:52N 33°23' W 117°35'0 0.0
2017-Sep-13 18:28N 33°23' W 117°35'0 0.0
2017-Sep-13 17:58N 33°23' W 117°35'0 0.0
2017-Sep-13 17:28N 33°23' W 117°35'0 0.1
2017-Sep-13 16:58N 33°23' W 117°35'0 0.0
2017-Sep-13 16:28N 33°23' W 117°35'0 0.1
2017-Sep-13 15:58N 33°23' W 117°35'0 0.1
2017-Sep-13 15:28N 33°23' W 117°35'0 0.0
2017-Sep-13 14:59N 33°23' W 117°35'0 0.2
2017-Sep-13 14:29N 33°23' W 117°35'3 6.0
2017-Sep-13 13:59N 33°24' W 117°39'3 6.5
2017-Sep-13 13:30N 33°26' W 117°41'6 0.3
2017-Sep-12 15:58N 33°23' W 117°35'0 0.1
2017-Sep-12 15:30N 33°23' W 117°35'0 0.0
2017-Sep-12 15:00N 33°23' W 117°35'0 0.1
2017-Sep-12 14:28N 33°23' W 117°35'0 0.1
2017-Sep-12 13:58N 33°23' W 117°35'0 0.1
2017-Sep-12 13:30N 33°23' W 117°35'0 0.7
2017-Sep-12 12:59N 33°23' W 117°36'2 4.3
2017-Sep-12 12:27N 33°24' W 117°38'2 5.5
2017-Sep-12 12:00N 33°24' W 117°41'13 5.1
2017-Sep-12 09:23N 33°28' W 117°56'2 4.8
2017-Sep-12 08:55N 33°29' W 117°59'51 6.5
2017-Sep-12 01:05N 33°48' W 118°56'1 7.3
2017-Sep-12 00:58N 33°48' W 118°57'3 7.1
2017-Sep-12 00:30N 33°50' W 119°00'2 4.8
2017-Sep-12 00:01N 33°51' W 119°03'3 5.5
2017-Sep-11 23:31N 33°53' W 119°05'3 5.5
2017-Sep-11 23:01N 33°55' W 119°08'3 6.1
2017-Sep-11 22:31N 33°57' W 119°10'3 5.0
2017-Sep-11 22:00N 33°60' W 119°11'3 6.3
2017-Sep-11 21:28N 34°02' W 119°14'3 6.9
2017-Sep-11 21:00N 34°05' W 119°17'4 7.3
2017-Sep-11 20:29N 34°07' W 119°20'8 6.4
2017-Sep-11 19:14N 34°13' W 119°27'2 6.2
2017-Sep-11 18:56N 34°14' W 119°28'3 5.9
2017-Sep-11 18:30N 34°16' W 119°31'4 5.8
2017-Sep-11 17:49N 34°19' W 119°34'3 6.1
2017-Sep-11 17:25N 34°21' W 119°36'5 6.1
2017-Sep-11 16:35N 34°24' W 119°40'  
2017-Sep-09 09:53N 34°25' W 119°40'0 0.0
2017-Sep-09 04:35N 34°25' W 119°40'0 0.0
2017-Sep-09 04:02N 34°25' W 119°40'0 0.0
2017-Sep-09 02:35N 34°25' W 119°40'0 0.0
2017-Sep-09 01:05N 34°25' W 119°40'0 0.0
2017-Sep-09 00:47N 34°25' W 119°40'0 0.0
2017-Sep-08 21:44N 34°25' W 119°40'0 0.0
2017-Sep-08 19:33N 34°25' W 119°40'0 2.0
2017-Sep-08 19:26N 34°25' W 119°41'1 0.4
2017-Sep-08 17:52N 34°24' W 119°41'0 0.0
2017-Sep-08 01:55N 34°24' W 119°41'0 0.0
2017-Sep-07 16:12N 34°25' W 119°41'0 0.0
2017-Sep-07 13:54N 34°25' W 119°41'2 3.8
2017-Sep-07 13:29N 34°23' W 119°42'3 5.4
2017-Sep-07 12:53N 34°22' W 119°46'2 5.9
2017-Sep-07 12:30N 34°22' W 119°48'3 5.8
2017-Sep-07 11:56N 34°22' W 119°52'3 5.8
2017-Sep-07 11:28N 34°22' W 119°56'3 5.6
2017-Sep-07 11:00N 34°23' W 119°59'3 5.5
2017-Sep-07 10:30N 34°23' W 120°02'3 5.7
2017-Sep-07 10:00N 34°24' W 120°05'3 5.1
2017-Sep-07 09:28N 34°24' W 120°09'3 5.6
2017-Sep-07 08:58N 34°24' W 120°12'3 6.3
2017-Sep-07 08:30N 34°24' W 120°15'3 5.7
2017-Sep-07 08:00N 34°24' W 120°19'3 5.3
2017-Sep-07 07:30N 34°25' W 120°22'3 5.8
2017-Sep-07 07:00N 34°25' W 120°26'3 6.3
2017-Sep-07 06:30N 34°25' W 120°29'3 6.5
2017-Sep-07 06:00N 34°27' W 120°33'4 6.6
2017-Sep-07 05:22N 34°30' W 120°36'2 6.5
2017-Sep-07 05:00N 34°31' W 120°39'8 6.3
2017-Sep-07 03:47N 34°36' W 120°46'3 5.5
2017-Sep-07 03:17N 34°38' W 120°48'2 5.5
2017-Sep-07 02:51N 34°41' W 120°48'5 5.5
2017-Sep-07 01:59N 34°45' W 120°49'3 5.6
2017-Sep-07 01:30N 34°48' W 120°49'3 6.4
2017-Sep-07 01:00N 34°51' W 120°50'3 6.4
2017-Sep-07 00:28N 34°54' W 120°50'3 6.2
2017-Sep-07 00:00N 34°57' W 120°50'8 6.4
2017-Sep-06 22:43N 35°06' W 120°51'9 5.5
2017-Sep-06 21:02N 35°14' W 120°55'1 5.2
2017-Sep-06 20:55N 35°15' W 120°55'  

Dump ship's entire track history